createdAt,value
2018-12-12T00:01:06.369Z,92.00
2018-12-12T00:03:36.387Z,92.20
2018-12-12T00:06:05.812Z,91.80
2018-12-12T00:08:35.438Z,92.00
2018-12-12T00:11:04.896Z,92.50
2018-12-12T00:13:34.303Z,93.00
2018-12-12T00:16:04.152Z,93.40
2018-12-12T00:18:33.371Z,93.70
2018-12-12T00:21:03.290Z,93.60
2018-12-12T00:23:32.735Z,93.60
2018-12-12T00:26:01.919Z,93.50
2018-12-12T00:28:30.977Z,92.90
2018-12-12T00:31:00.182Z,93.00
2018-12-12T00:33:29.721Z,92.60
2018-12-12T00:35:58.768Z,92.40
2018-12-12T00:38:27.849Z,92.70
2018-12-12T00:40:57.442Z,92.90
2018-12-12T00:43:26.890Z,92.60
2018-12-12T00:45:56.165Z,92.80
2018-12-12T00:48:25.378Z,92.90
2018-12-12T00:50:54.434Z,93.10
2018-12-12T00:53:24.031Z,93.20
2018-12-12T00:55:53.375Z,93.30
2018-12-12T00:58:22.410Z,93.00
2018-12-12T01:00:51.472Z,93.00
2018-12-12T01:03:20.475Z,92.70
2018-12-12T01:05:49.545Z,92.90
2018-12-12T01:08:18.627Z,93.20
2018-12-12T01:10:49.589Z,92.80
2018-12-12T01:13:18.744Z,92.80
2018-12-12T01:15:48.679Z,92.90
2018-12-12T01:18:18.174Z,93.10
2018-12-12T01:20:48.315Z,93.30
2018-12-12T01:23:17.647Z,93.80
2018-12-12T01:25:46.719Z,93.90
2018-12-12T01:28:16.338Z,94.10
2018-12-12T01:30:45.395Z,94.20
2018-12-12T01:33:14.995Z,94.30
2018-12-12T01:35:44.631Z,94.20
2018-12-12T01:38:14.838Z,94.10
2018-12-12T01:40:43.902Z,94.30
2018-12-12T01:43:13.314Z,94.40
2018-12-12T01:45:42.492Z,94.50
2018-12-12T01:48:11.943Z,94.50
2018-12-12T01:50:41.213Z,94.80
2018-12-12T01:53:10.475Z,95.10
2018-12-12T01:55:39.486Z,95.30
2018-12-12T01:58:08.613Z,95.30
2018-12-12T02:00:38.745Z,95.20
2018-12-12T02:03:07.762Z,95.30
2018-12-12T02:05:37.183Z,95.40
2018-12-12T02:08:06.251Z,95.60
2018-12-12T02:10:36.211Z,95.30
2018-12-12T02:16:16.125Z,95.30
2018-12-12T02:18:46.527Z,95.30
2018-12-12T02:21:15.912Z,95.30
2018-12-12T02:23:45.463Z,95.30
2018-12-12T02:26:15.826Z,95.40
2018-12-12T02:28:45.544Z,95.60
2018-12-12T02:31:14.644Z,95.80
2018-12-12T02:33:43.679Z,95.90
2018-12-12T02:36:12.731Z,95.60
2018-12-12T02:38:42.828Z,95.90
2018-12-12T02:41:11.935Z,96.10
2018-12-12T02:43:41.516Z,96.30
2018-12-12T02:46:10.732Z,96.20
2018-12-12T02:48:40.098Z,96.20
2018-12-12T02:51:09.604Z,96.20
2018-12-12T02:53:38.651Z,96.10
2018-12-12T02:56:07.759Z,95.90
2018-12-12T02:58:37.376Z,95.60
2018-12-12T03:01:07.107Z,95.40
2018-12-12T03:03:36.680Z,95.50
2018-12-12T03:06:05.702Z,95.60
2018-12-12T03:08:34.847Z,95.50
2018-12-12T03:11:03.923Z,95.30
2018-12-12T03:13:33.403Z,95.50
2018-12-12T03:16:02.485Z,95.30
2018-12-12T03:18:32.306Z,95.30
2018-12-12T03:21:01.334Z,95.30
2018-12-12T03:23:32.375Z,95.30
2018-12-12T03:26:02.095Z,94.90
2018-12-12T03:28:31.334Z,94.50
2018-12-12T03:31:01.863Z,94.70
2018-12-12T03:33:31.166Z,95.00
2018-12-12T03:36:00.197Z,95.10
2018-12-12T03:38:30.127Z,94.80
2018-12-12T03:40:59.378Z,94.60
2018-12-12T03:43:28.579Z,94.30
2018-12-12T03:45:57.760Z,94.20
2018-12-12T03:48:26.811Z,94.50
2018-12-12T03:50:56.388Z,94.60
2018-12-12T03:53:25.494Z,93.90
2018-12-12T03:55:54.628Z,93.90
2018-12-12T03:58:24.258Z,93.70
2018-12-12T04:00:54.081Z,93.40
2018-12-12T04:03:23.971Z,93.80
2018-12-12T04:05:54.132Z,94.00
2018-12-12T04:08:23.523Z,94.10
2018-12-12T04:10:52.579Z,94.00
2018-12-12T04:13:22.486Z,93.80
2018-12-12T04:15:52.274Z,93.90
2018-12-12T04:18:22.203Z,93.50
2018-12-12T04:20:52.165Z,93.30
2018-12-12T04:23:21.326Z,92.90
2018-12-12T04:25:51.964Z,93.10
2018-12-12T04:28:22.583Z,93.30
2018-12-12T04:30:51.603Z,93.40
2018-12-12T04:33:21.523Z,93.50
2018-12-12T04:35:51.312Z,93.20
2018-12-12T04:38:20.381Z,93.20
2018-12-12T04:40:49.539Z,93.40
2018-12-12T04:43:19.119Z,93.50
2018-12-12T04:45:48.870Z,92.90
2018-12-12T04:48:18.813Z,93.40
2018-12-12T04:50:48.285Z,93.40
2018-12-12T04:53:17.751Z,93.60
2018-12-12T04:55:47.159Z,93.60
2018-12-12T04:58:16.935Z,93.60
2018-12-12T05:00:46.390Z,93.50
2018-12-12T05:03:15.434Z,93.10
2018-12-12T05:05:44.877Z,93.10
2018-12-12T05:08:14.494Z,93.00
2018-12-12T05:10:44.244Z,93.10
2018-12-12T05:13:13.852Z,93.40
2018-12-12T05:15:43.306Z,93.10
2018-12-12T05:18:13.163Z,93.00
2018-12-12T05:20:42.587Z,93.30
2018-12-12T05:23:11.727Z,93.40
2018-12-12T05:25:40.784Z,93.70
2018-12-12T05:28:11.798Z,93.90
2018-12-12T05:30:41.312Z,94.00
2018-12-12T05:33:11.403Z,94.20
2018-12-12T05:35:41.263Z,94.30
2018-12-12T05:38:10.686Z,94.00
2018-12-12T05:40:41.178Z,93.10
2018-12-12T05:43:10.225Z,93.10
2018-12-12T05:45:39.660Z,92.60
2018-12-12T05:48:08.740Z,92.60
2018-12-12T05:50:38.031Z,92.60
2018-12-12T05:53:08.598Z,92.70
2018-12-12T05:55:38.646Z,93.00
2018-12-12T05:58:08.568Z,93.10
2018-12-12T06:00:38.209Z,93.50
2018-12-12T06:03:07.688Z,93.90
2018-12-12T06:05:36.888Z,94.20
2018-12-12T06:08:06.088Z,94.30
2018-12-12T06:10:35.482Z,94.40
2018-12-12T06:13:04.510Z,94.30
2018-12-12T06:15:34.220Z,94.30
2018-12-12T06:18:04.628Z,94.20
2018-12-12T06:20:34.635Z,94.30
2018-12-12T06:23:04.339Z,94.40
2018-12-12T06:25:33.404Z,94.30
2018-12-12T06:28:02.478Z,93.90
2018-12-12T06:30:31.549Z,93.70
2018-12-12T06:33:01.678Z,93.60
2018-12-12T06:35:31.858Z,93.60
2018-12-12T06:38:00.898Z,93.50
2018-12-12T06:40:31.083Z,93.30
2018-12-12T06:43:00.167Z,93.20
2018-12-12T06:45:29.598Z,93.70
2018-12-12T06:47:59.335Z,93.60
2018-12-12T06:50:29.494Z,93.70
2018-12-12T06:52:59.118Z,93.70
2018-12-12T06:55:28.314Z,93.70
2018-12-12T06:57:57.355Z,93.80
2018-12-12T07:00:28.143Z,94.00
2018-12-12T07:02:57.955Z,93.90
2018-12-12T07:05:27.536Z,93.70
2018-12-12T07:07:57.098Z,93.50
2018-12-12T07:10:27.139Z,93.40
2018-12-12T07:12:56.422Z,93.30
2018-12-12T07:15:25.752Z,93.10
2018-12-12T07:17:55.679Z,93.20
2018-12-12T07:20:25.075Z,92.80
2018-12-12T07:22:54.832Z,93.00
2018-12-12T07:25:23.958Z,92.70
2018-12-12T07:27:53.532Z,93.00
2018-12-12T07:30:22.632Z,93.00
2018-12-12T07:32:51.659Z,92.90
2018-12-12T07:35:20.862Z,92.80
2018-12-12T07:37:50.210Z,92.70
2018-12-12T07:40:19.801Z,92.70
2018-12-12T07:42:49.038Z,92.70
2018-12-12T07:45:18.838Z,92.50
2018-12-12T07:47:48.020Z,92.70
2018-12-12T07:50:17.558Z,92.40
2018-12-12T07:52:46.700Z,92.20
2018-12-12T07:55:15.838Z,92.30
2018-12-12T07:57:46.583Z,92.70
2018-12-12T08:00:20.155Z,92.60
2018-12-12T08:02:49.216Z,92.60
2018-12-12T08:05:18.859Z,92.50
2018-12-12T08:07:48.043Z,91.60
2018-12-12T08:10:17.082Z,91.60
2018-12-12T08:12:46.752Z,91.50
2018-12-12T08:15:16.253Z,91.20
2018-12-12T08:17:45.458Z,91.20
2018-12-12T08:20:15.611Z,91.30
2018-12-12T08:22:44.811Z,91.20
2018-12-12T08:25:14.314Z,91.20
2018-12-12T08:27:44.065Z,91.20
2018-12-12T08:30:13.134Z,90.70
2018-12-12T08:32:43.086Z,90.50
2018-12-12T08:35:12.555Z,89.10
2018-12-12T08:37:41.994Z,89.90
2018-12-12T08:40:11.415Z,90.00
2018-12-12T08:42:40.768Z,89.80
2018-12-12T08:45:10.423Z,90.00
2018-12-12T08:47:39.869Z,88.50
2018-12-12T08:50:09.664Z,88.60
2018-12-12T08:52:38.690Z,87.90
2018-12-12T08:55:09.694Z,87.90
2018-12-12T08:57:38.844Z,86.70
2018-12-12T09:00:07.898Z,87.40
2018-12-12T09:02:40.679Z,87.90
2018-12-12T09:05:09.886Z,88.20
2018-12-12T09:07:38.962Z,86.20
2018-12-12T09:10:08.060Z,87.70
2018-12-12T09:12:37.516Z,87.70
2018-12-12T09:15:06.559Z,87.50
2018-12-12T09:17:35.634Z,88.20
2018-12-12T09:20:05.590Z,86.80
2018-12-12T09:22:34.683Z,86.30
2018-12-12T09:25:04.261Z,87.60
2018-12-12T09:27:33.594Z,87.40
2018-12-12T09:30:04.289Z,88.50
2018-12-12T09:32:33.643Z,89.10
2018-12-12T09:35:02.773Z,88.90
2018-12-12T09:37:32.234Z,89.40
2018-12-12T09:40:01.548Z,90.00
2018-12-12T09:42:30.864Z,90.20
2018-12-12T09:44:59.962Z,90.10
2018-12-12T09:47:29.342Z,90.60
2018-12-12T09:49:59.008Z,91.00
2018-12-12T09:52:28.022Z,91.60
2018-12-12T09:54:57.136Z,91.20
2018-12-12T09:57:26.585Z,90.30
2018-12-12T09:59:56.132Z,90.70
2018-12-12T10:02:25.231Z,90.50
2018-12-12T10:04:54.628Z,90.90
2018-12-12T10:07:23.683Z,90.40
2018-12-12T10:09:52.746Z,90.50
2018-12-12T10:12:21.787Z,89.50
2018-12-12T10:14:50.843Z,90.40
2018-12-12T10:17:19.941Z,90.70
2018-12-12T10:19:49.299Z,90.20
2018-12-12T10:22:18.327Z,90.40
2018-12-12T10:24:47.379Z,90.30
2018-12-12T10:27:16.417Z,90.60
2018-12-12T10:29:46.020Z,90.60
2018-12-12T10:32:15.044Z,89.80
2018-12-12T10:34:44.139Z,90.10
2018-12-12T10:37:13.175Z,89.60
2018-12-12T10:39:42.242Z,89.50
2018-12-12T10:42:11.275Z,87.50
2018-12-12T10:44:40.716Z,87.10
2018-12-12T10:47:09.955Z,88.70
2018-12-12T10:49:39.443Z,88.70
2018-12-12T10:52:08.575Z,88.30
2018-12-12T10:54:37.603Z,87.10
2018-12-12T10:57:06.712Z,85.20
2018-12-12T10:59:35.746Z,85.20
2018-12-12T11:02:10.458Z,85.20
2018-12-12T11:04:39.478Z,85.20
2018-12-12T11:07:08.608Z,82.10
2018-12-12T11:09:37.641Z,82.60
2018-12-12T11:12:06.714Z,83.20
2018-12-12T11:14:36.047Z,84.00
2018-12-12T11:17:05.076Z,82.20
2018-12-12T11:19:34.266Z,82.00
2018-12-12T11:22:03.356Z,78.60
2018-12-12T11:24:32.428Z,76.60
2018-12-12T11:27:01.731Z,75.20
2018-12-12T11:29:30.843Z,73.90
2018-12-12T11:31:59.892Z,75.00
2018-12-12T11:34:29.604Z,74.80
2018-12-12T11:36:58.631Z,73.40
2018-12-12T11:39:27.757Z,74.20
2018-12-12T11:41:56.778Z,71.60
2018-12-12T11:44:25.912Z,73.10
2018-12-12T11:46:54.965Z,73.20
2018-12-12T11:49:24.191Z,71.70
2018-12-12T11:51:53.480Z,72.70
2018-12-12T11:54:22.580Z,73.30
2018-12-12T11:56:52.079Z,70.70
2018-12-12T11:59:21.143Z,70.30
2018-12-12T12:01:50.239Z,69.00
2018-12-12T12:04:19.300Z,69.90
2018-12-12T12:06:48.360Z,68.60
2018-12-12T12:09:17.407Z,69.70
2018-12-12T12:11:46.457Z,69.80
2018-12-12T12:14:15.556Z,70.20
2018-12-12T12:16:44.582Z,70.90
2018-12-12T12:19:13.774Z,71.00
2018-12-12T12:21:42.803Z,67.10
2018-12-12T12:24:12.376Z,67.90
2018-12-12T12:26:42.044Z,67.20
2018-12-12T12:29:11.935Z,67.30
2018-12-12T12:31:41.364Z,67.40
2018-12-12T12:34:10.748Z,65.70
2018-12-12T12:36:39.812Z,66.50
2018-12-12T12:39:08.930Z,66.60
2018-12-12T12:41:37.984Z,67.40
2018-12-12T12:44:07.014Z,68.00
2018-12-12T12:46:36.071Z,68.40
2018-12-12T12:49:05.532Z,69.40
2018-12-12T12:51:34.635Z,68.50
2018-12-12T12:54:03.663Z,69.20
2018-12-12T12:56:32.760Z,69.00
2018-12-12T12:59:01.828Z,69.30
2018-12-12T13:01:31.196Z,68.40
2018-12-12T13:04:00.227Z,69.00
2018-12-12T13:06:29.287Z,68.30
2018-12-12T13:08:58.363Z,67.70
2018-12-12T13:11:27.429Z,68.10
2018-12-12T13:13:56.517Z,66.10
2018-12-12T13:16:25.948Z,65.30
2018-12-12T13:18:55.080Z,63.80
2018-12-12T13:21:24.136Z,64.00
2018-12-12T13:23:53.997Z,66.20
2018-12-12T13:26:23.932Z,63.50
2018-12-12T13:28:52.965Z,64.30
2018-12-12T13:31:22.115Z,64.00
2018-12-12T13:33:51.359Z,63.80
2018-12-12T13:36:20.415Z,64.50
2018-12-12T13:38:49.795Z,63.00
2018-12-12T13:41:18.827Z,63.80
2018-12-12T13:43:47.896Z,63.40
2018-12-12T13:46:17.312Z,65.00
2018-12-12T13:48:46.815Z,66.60
2018-12-12T13:51:16.239Z,66.60
2018-12-12T13:53:45.556Z,66.60
2018-12-12T13:56:14.650Z,66.60
2018-12-12T13:58:44.048Z,67.60
2018-12-12T14:01:13.469Z,67.50
2018-12-12T14:03:42.529Z,68.60
2018-12-12T14:06:11.555Z,68.10
2018-12-12T14:08:40.705Z,69.40
2018-12-12T14:11:10.224Z,71.00
2018-12-12T14:13:39.255Z,72.10
2018-12-12T14:16:08.369Z,73.00
2018-12-12T14:18:37.796Z,74.30
2018-12-12T14:21:06.893Z,75.10
2018-12-12T14:23:36.023Z,76.50
2018-12-12T14:26:05.398Z,77.30
2018-12-12T14:28:35.307Z,78.30
2018-12-12T14:31:04.401Z,79.40
2018-12-12T14:33:33.509Z,79.90
2018-12-12T14:36:02.564Z,80.40
2018-12-12T14:38:31.655Z,80.70
2018-12-12T14:41:00.763Z,80.80
2018-12-12T14:43:29.875Z,82.70
2018-12-12T14:45:59.736Z,83.70
2018-12-12T14:48:30.371Z,83.70
2018-12-12T14:50:59.635Z,83.70
2018-12-12T14:53:28.757Z,83.70
2018-12-12T14:55:57.877Z,84.60
2018-12-12T14:58:27.009Z,84.60
2018-12-12T15:00:56.060Z,85.00
2018-12-12T15:03:25.181Z,85.90
2018-12-12T15:05:54.243Z,86.30
2018-12-12T15:08:23.298Z,86.40
2018-12-12T15:10:53.749Z,86.80
2018-12-12T15:13:23.023Z,87.00
2018-12-12T15:15:52.345Z,87.50
2018-12-12T15:18:21.433Z,86.00
2018-12-12T15:20:50.501Z,85.10
2018-12-12T15:23:19.859Z,85.20
2018-12-12T15:25:49.021Z,84.10
2018-12-12T15:28:18.212Z,84.40
2018-12-12T15:30:47.345Z,84.10
2018-12-12T15:33:16.532Z,84.50
2018-12-12T15:35:45.629Z,84.40
2018-12-12T15:38:14.847Z,83.80
2018-12-12T15:40:44.291Z,84.20
2018-12-12T15:43:13.317Z,85.30
2018-12-12T15:45:42.882Z,85.00
2018-12-12T15:48:11.922Z,84.00
2018-12-12T15:50:41.097Z,84.60
2018-12-12T15:53:10.151Z,83.80
2018-12-12T15:55:40.031Z,83.90
2018-12-12T15:58:09.181Z,81.00
2018-12-12T16:00:38.216Z,81.20
2018-12-12T16:03:07.482Z,81.10
2018-12-12T16:05:36.551Z,79.30
2018-12-12T16:08:05.620Z,76.20
2018-12-12T16:10:34.723Z,77.10
2018-12-12T16:13:04.714Z,76.80
2018-12-12T16:15:33.747Z,77.00
2018-12-12T16:18:03.751Z,75.30
2018-12-12T16:20:32.829Z,75.70
2018-12-12T16:23:02.504Z,77.10
2018-12-12T16:25:31.622Z,76.90
2018-12-12T16:28:02.332Z,76.60
2018-12-12T16:30:31.717Z,77.00
2018-12-12T16:33:01.786Z,76.50
2018-12-12T16:35:31.367Z,76.10
2018-12-12T16:38:00.764Z,78.10
2018-12-12T16:40:29.827Z,78.30
2018-12-12T16:42:59.604Z,79.00
2018-12-12T16:45:29.357Z,80.00
2018-12-12T16:47:58.446Z,80.40
2018-12-12T16:50:27.969Z,80.40
2018-12-12T16:52:57.158Z,80.30
2018-12-12T16:55:26.210Z,81.00
2018-12-12T16:57:56.748Z,80.80
2018-12-12T17:00:25.762Z,79.90
2018-12-12T17:02:55.292Z,79.10
2018-12-12T17:05:25.791Z,78.40
2018-12-12T17:07:55.756Z,78.90
2018-12-12T17:10:24.947Z,78.60
2018-12-12T17:12:54.040Z,78.80
2018-12-12T17:15:25.330Z,78.80
2018-12-12T17:17:54.601Z,78.80
2018-12-12T17:20:23.711Z,79.90
2018-12-12T17:22:53.569Z,79.10
2018-12-12T17:25:23.047Z,78.50
2018-12-12T17:27:53.269Z,77.80
2018-12-12T17:30:22.326Z,78.00
2018-12-12T17:32:51.385Z,78.30
2018-12-12T17:35:20.439Z,76.30
2018-12-12T17:37:49.564Z,76.90
2018-12-12T17:40:19.125Z,76.80
2018-12-12T17:42:48.212Z,76.20
2018-12-12T17:45:17.271Z,74.70
2018-12-12T17:47:47.103Z,74.10
2018-12-12T17:50:16.590Z,74.10
2018-12-12T17:52:46.831Z,75.90
2018-12-12T17:55:16.104Z,74.00
2018-12-12T17:57:46.495Z,75.00
2018-12-12T18:00:15.828Z,75.60
2018-12-12T18:02:45.498Z,76.90
2018-12-12T18:05:15.360Z,76.90
2018-12-12T18:07:45.116Z,77.90
2018-12-12T18:10:14.617Z,78.30
2018-12-12T18:12:44.259Z,78.20
2018-12-12T18:15:13.956Z,78.90
2018-12-12T18:17:43.153Z,79.20
2018-12-12T18:20:12.370Z,79.40
2018-12-12T18:22:41.424Z,79.50
2018-12-12T18:25:10.611Z,80.00
2018-12-12T18:27:39.741Z,80.20
2018-12-12T18:30:08.909Z,80.00
2018-12-12T18:32:38.828Z,79.90
2018-12-12T18:35:07.882Z,80.20
2018-12-12T18:37:37.025Z,80.20
2018-12-12T18:40:06.363Z,80.40
2018-12-12T18:42:35.560Z,80.00
2018-12-12T18:45:05.273Z,80.20
2018-12-12T18:47:34.400Z,79.90
2018-12-12T18:50:06.271Z,80.10
2018-12-12T18:52:35.511Z,80.30
2018-12-12T18:55:04.598Z,80.30
2018-12-12T18:57:34.767Z,80.00
2018-12-12T19:03:02.893Z,79.00
2018-12-12T19:05:31.955Z,79.10
2018-12-12T19:08:01.541Z,79.40
2018-12-12T19:10:30.640Z,79.60
2018-12-12T19:12:59.671Z,79.20
2018-12-12T19:15:28.740Z,79.10
2018-12-12T19:17:58.256Z,78.50
2018-12-12T19:20:27.417Z,78.30
2018-12-12T19:22:56.485Z,78.30
2018-12-12T19:25:25.936Z,78.30
2018-12-12T19:27:55.512Z,78.30
2018-12-12T19:30:24.947Z,78.10
2018-12-12T19:32:54.850Z,77.90
2018-12-12T19:35:24.840Z,77.20
2018-12-12T19:37:54.179Z,76.90
2018-12-12T19:40:23.880Z,77.00
2018-12-12T19:42:53.021Z,76.80
2018-12-12T19:45:23.653Z,76.60
2018-12-12T19:47:52.959Z,77.10
2018-12-12T19:50:22.092Z,77.80
2018-12-12T19:52:51.679Z,78.20
2018-12-12T19:55:21.229Z,77.60
2018-12-12T19:57:50.689Z,77.70
2018-12-12T20:00:20.631Z,77.80
2018-12-12T20:02:50.552Z,77.30
2018-12-12T20:05:19.662Z,76.60
2018-12-12T20:07:49.884Z,76.90
2018-12-12T20:10:19.384Z,76.80
2018-12-12T20:12:49.419Z,77.30
2018-12-12T20:15:24.560Z,78.30
2018-12-12T20:17:54.126Z,77.90
2018-12-12T20:20:23.154Z,78.20
2018-12-12T20:22:53.097Z,78.20
2018-12-12T20:25:22.727Z,79.30
2018-12-12T20:27:51.812Z,79.60
2018-12-12T20:30:21.201Z,79.30
2018-12-12T20:32:50.283Z,78.30
2018-12-12T20:35:21.041Z,78.60
2018-12-12T20:37:50.526Z,79.10
2018-12-12T20:40:19.612Z,78.90
2018-12-12T20:42:49.639Z,78.90
2018-12-12T20:45:19.459Z,78.40
2018-12-12T20:47:50.013Z,77.20
2018-12-12T20:50:20.337Z,77.40
2018-12-12T20:52:49.444Z,77.10
2018-12-12T20:55:19.633Z,76.10
2018-12-12T20:57:49.236Z,78.00
2018-12-12T21:00:18.983Z,78.40
2018-12-12T21:02:48.156Z,77.90
2018-12-12T21:05:17.192Z,77.80
2018-12-12T21:07:46.347Z,77.70
2018-12-12T21:10:15.939Z,77.90
2018-12-12T21:12:45.452Z,78.50
2018-12-12T21:15:14.540Z,79.50
2018-12-12T21:17:43.903Z,78.80
2018-12-12T21:20:13.338Z,79.30
2018-12-12T21:22:42.501Z,79.00
2018-12-12T21:25:11.531Z,79.30
2018-12-12T21:27:41.294Z,80.10
2018-12-12T21:30:10.439Z,80.50
2018-12-12T21:32:39.523Z,80.70
2018-12-12T21:35:09.575Z,81.00
2018-12-12T21:37:38.650Z,81.80
2018-12-12T21:40:07.702Z,82.10
2018-12-12T21:42:36.790Z,82.10
2018-12-12T21:45:05.945Z,83.10
2018-12-12T21:47:34.991Z,83.10
2018-12-12T21:50:06.619Z,82.50
2018-12-12T21:52:35.724Z,81.80
2018-12-12T21:55:05.334Z,81.90
2018-12-12T21:57:34.396Z,81.70
2018-12-12T22:00:04.536Z,82.10
2018-12-12T22:02:33.633Z,81.70
2018-12-12T22:05:02.742Z,81.20
2018-12-12T22:07:31.800Z,80.90
2018-12-12T22:10:00.920Z,80.60
2018-12-12T22:12:30.267Z,80.30
2018-12-12T22:14:59.756Z,82.10
2018-12-12T22:17:28.825Z,83.00
2018-12-12T22:19:58.288Z,83.80
2018-12-12T22:22:27.711Z,83.10
2018-12-12T22:24:56.868Z,83.20
2018-12-12T22:27:25.916Z,84.80
2018-12-12T22:29:58.059Z,84.50
2018-12-12T22:32:27.113Z,85.70
2018-12-12T22:34:56.176Z,86.10
2018-12-12T22:37:25.256Z,86.20
2018-12-12T22:39:55.007Z,86.00
2018-12-12T22:42:24.059Z,85.80
2018-12-12T22:44:53.111Z,87.20
2018-12-12T22:47:22.227Z,87.50
2018-12-12T22:49:51.594Z,87.90
2018-12-12T22:52:20.610Z,87.80
2018-12-12T22:54:49.792Z,87.80
2018-12-12T22:57:19.621Z,87.30
2018-12-12T22:59:50.048Z,86.60
2018-12-12T23:02:20.378Z,87.30
2018-12-12T23:04:49.448Z,87.80
2018-12-12T23:07:18.853Z,88.20
2018-12-12T23:09:47.910Z,89.30
2018-12-12T23:12:16.938Z,90.30
2018-12-12T23:14:46.094Z,90.20
2018-12-12T23:17:15.154Z,90.50
2018-12-12T23:19:44.171Z,90.10
2018-12-12T23:22:13.210Z,90.30
2018-12-12T23:24:42.272Z,90.10
2018-12-12T23:27:11.363Z,90.30
2018-12-12T23:29:40.421Z,90.40
2018-12-12T23:32:09.850Z,90.50
2018-12-12T23:34:38.905Z,90.50
2018-12-12T23:37:08.456Z,90.90
2018-12-12T23:39:37.550Z,90.90
2018-12-12T23:42:07.051Z,90.90
2018-12-12T23:44:36.174Z,91.20
2018-12-12T23:47:05.957Z,91.20
2018-12-12T23:49:35.005Z,91.20
2018-12-12T23:52:04.464Z,91.20
2018-12-12T23:54:33.547Z,91.70
2018-12-12T23:57:02.637Z,91.40
2018-12-12T23:59:32.053Z,91.60
